Time;durP1;ratioP1;P1;durP2;ratioP2;P2;SDS_P1;SDS_P2;PMS_P1;PMS_P2;Temp;Humidity;BMP_temperature;BMP_pressure;BME280_temperature;BME280_humidity;BME280_pressure;Samples;Min_cycle;Max_cycle;Signal;HPM_P1;HPM_P2
2021/08/09 00:00:15;;;;;;;;;;;15.80;99.90;;;14.37;86.35;101086.53;3520539;40;102126;-41
2021/08/09 00:02:42;;;;;;;;;;;15.70;99.90;;;14.30;86.31;101086.63;3520587;40;103190;-40
2021/08/09 00:05:10;;;;;;;;;;;15.60;99.90;;;14.23;86.33;101094.13;3520294;40;102250;-39
2021/08/09 00:07:37;;;;;;;;;;;15.60;99.90;;;14.16;86.64;101091.44;3520237;39;103043;-39
2021/08/09 00:10:06;;;;;;;;;;;15.50;99.90;;;14.12;86.94;101094.88;3520664;39;103230;-41
2021/08/09 00:12:33;;;;;;;;;;;15.40;99.90;;;14.02;87.03;101092.66;3520448;39;102848;-42
2021/08/09 00:15:00;;;;;;;;;;;15.40;99.90;;;13.97;87.47;101084.28;3520131;39;102363;-39
2021/08/09 00:17:28;;;;;;;;;;;15.30;99.90;;;13.90;87.60;101092.59;3520382;39;102138;-39
2021/08/09 00:19:55;;;;;;;;;;;15.20;99.90;;;13.83;87.79;101086.34;3520253;39;102837;-39
2021/08/09 00:22:22;;;;;;;;;;;15.20;99.90;;;13.75;88.58;101092.97;3520316;40;104070;-39
2021/08/09 00:24:50;;;;;;;;;;;15.10;99.90;;;13.73;88.36;101090.47;3520289;39;102166;-40
2021/08/09 00:27:17;;;;;;;;;;;15.10;99.90;;;13.70;88.40;101090.06;3520493;39;103319;-39
2021/08/09 00:29:45;;;;;;;;;;;15.00;99.90;;;13.64;88.54;101092.66;3520379;39;102350;-39
2021/08/09 00:32:12;;;;;;;;;;;15.00;99.90;;;13.58;88.43;101082.59;3519894;39;103041;-41
2021/08/09 00:34:40;;;;;;;;;;;15.00;99.90;;;13.57;88.50;101091.88;3520625;39;102654;-39
2021/08/09 00:37:07;;;;;;;;;;;14.90;99.90;;;13.52;88.81;101099.94;3519911;39;103096;-39
2021/08/09 00:39:36;;;;;;;;;;;14.90;99.90;;;13.46;88.70;101101.69;3519397;40;102456;-39
2021/08/09 00:42:05;;;;;;;;;;;14.80;99.90;;;13.39;88.54;101098.13;3520158;39;102388;-41
2021/08/09 00:44:37;;;;;;;;;;;14.80;99.90;;;13.34;89.00;101098.81;3520038;39;102839;-40
2021/08/09 00:47:05;;;;;;;;;;;14.70;99.90;;;13.30;89.05;101102.22;3520104;39;102361;-39
2021/08/09 00:49:33;;;;;;;;;;;14.70;99.90;;;13.23;89.18;101097.63;3519321;40;102470;-40
2021/08/09 00:52:04;;;;;;;;;;;14.60;99.90;;;13.20;89.22;101098.09;3519264;40;103153;-39
2021/08/09 00:54:37;;;;;;;;;;;14.60;99.90;;;13.19;89.18;101103.78;3519189;40;102179;-39
2021/08/09 00:57:06;;;;;;;;;;;14.60;99.90;;;13.14;89.25;101106.34;3519247;40;104459;-39
2021/08/09 00:59:36;;;;;;;;;;;14.50;99.90;;;13.08;89.51;101103.44;3518975;40;102789;-39
2021/08/09 01:02:04;;;;;;;;;;;14.50;99.90;;;13.06;89.44;101104.72;3519077;40;103917;-39
2021/08/09 01:04:34;;;;;;;;;;;14.40;99.90;;;12.99;89.48;101107.50;3519184;40;102115;-39
2021/08/09 01:07:02;;;;;;;;;;;14.40;99.90;;;12.97;89.51;101112.38;3519484;40;105467;-42
2021/08/09 01:09:42;;;;;;;;;;;14.40;99.90;;;12.91;89.80;101107.78;3519078;40;102318;-39
2021/08/09 01:12:15;;;;;;;;;;;14.30;99.90;;;12.89;89.97;101115.38;3520251;39;103986;-39
2021/08/09 01:15:07;;;;;;;;;;;14.30;99.90;;;12.84;90.04;101115.22;3519859;40;104011;-39
2021/08/09 01:17:46;;;;;;;;;;;14.30;99.90;;;12.80;90.16;101112.06;3520011;39;104915;-41
2021/08/09 01:20:32;;;;;;;;;;;14.20;99.90;;;12.77;90.12;101107.88;3519780;40;103760;-39
2021/08/09 01:22:59;;;;;;;;;;;14.20;99.90;;;12.77;90.25;101117.97;3518763;40;102160;-39
2021/08/09 01:25:50;;;;;;;;;;;14.20;99.90;;;12.70;90.39;101125.41;3518916;40;102149;-39
2021/08/09 01:28:21;;;;;;;;;;;14.10;99.90;;;12.65;90.62;101120.56;3518925;40;103137;-39
2021/08/09 01:30:52;;;;;;;;;;;14.10;99.90;;;12.63;90.79;101130.91;3518943;40;103976;-39
2021/08/09 01:33:20;;;;;;;;;;;14.10;99.90;;;12.59;91.24;101132.41;3510921;40;103181;-39
2021/08/09 01:35:47;;;;;;;;;;;14.00;99.90;;;12.59;91.41;101126.94;3518563;40;102327;-40
2021/08/09 01:38:16;;;;;;;;;;;14.00;99.90;;;12.58;91.69;101136.19;3519693;39;104801;-41
2021/08/09 01:40:46;;;;;;;;;;;14.00;99.90;;;12.54;91.33;101140.44;3518590;40;102553;-39
2021/08/09 01:43:16;;;;;;;;;;;13.90;99.90;;;12.54;91.49;101143.16;3518807;40;102722;-39
2021/08/09 01:45:45;;;;;;;;;;;13.90;99.90;;;12.52;91.51;101132.44;3519603;40;102709;-39
2021/08/09 01:48:13;;;;;;;;;;;13.90;99.90;;;12.56;92.31;101138.31;3519479;40;103190;-38
2021/08/09 01:50:42;;;;;;;;;;;13.90;99.90;;;12.58;92.69;101147.97;3519625;39;103840;-42
2021/08/09 01:53:11;;;;;;;;;;;13.90;99.90;;;12.60;92.93;101139.56;3518553;40;104033;-39
2021/08/09 01:55:39;;;;;;;;;;;14.00;99.90;;;12.61;93.00;101143.97;3518507;40;102235;-39
2021/08/09 01:58:08;;;;;;;;;;;14.00;99.90;;;12.62;92.89;101154.72;3519017;40;103297;-39
2021/08/09 02:00:36;;;;;;;;;;;14.00;99.90;;;12.62;93.23;101146.50;3518382;40;102217;-39
2021/08/09 02:03:04;;;;;;;;;;;14.00;99.90;;;12.66;93.23;101146.88;3518436;40;103230;-39
2021/08/09 02:05:33;;;;;;;;;;;14.00;99.90;;;12.71;93.35;101149.81;3518447;40;103164;-39
2021/08/09 02:08:11;;;;;;;;;;;14.00;99.90;;;12.74;93.39;101151.28;3518654;40;103213;-39
2021/08/09 02:10:38;;;;;;;;;;;14.10;99.90;;;12.78;93.35;101147.03;3519473;40;102156;-41
2021/08/09 02:13:26;;;;;;;;;;;14.10;99.90;;;12.84;93.25;101145.31;3519737;40;102181;-40
2021/08/09 02:16:00;;;;;;;;;;;14.20;99.90;;;12.88;93.11;101135.59;3519849;40;102441;-40
2021/08/09 02:18:56;;;;;;;;;;;14.20;99.90;;;12.94;92.91;101138.31;3519885;40;103097;-39
2021/08/09 02:21:28;;;;;;;;;;;14.30;99.90;;;12.95;92.63;101131.78;3519758;40;102397;-39
2021/08/09 02:24:28;;;;;;;;;;;14.30;99.90;;;13.00;92.60;101136.59;3644433;22;103162;-38
2021/08/09 02:27:17;;;;;;;;;;;14.30;99.90;;;13.03;92.64;101132.56;3507142;40;102647;-40
2021/08/09 02:29:53;;;;;;;;;;;14.40;99.90;;;13.08;92.58;101136.31;3519962;40;104103;-40
2021/08/09 02:32:29;;;;;;;;;;;14.40;99.90;;;13.12;92.44;101130.41;3511736;40;102931;-39
2021/08/09 02:35:01;;;;;;;;;;;14.40;99.90;;;13.13;92.27;101124.72;3501852;40;103133;-40
2021/08/09 02:37:29;;;;;;;;;;;14.50;99.90;;;13.16;92.54;101131.63;3501888;40;102256;-39
2021/08/09 02:39:58;;;;;;;;;;;14.50;99.90;;;13.17;92.51;101131.41;3509906;40;103938;-40
2021/08/09 02:42:25;;;;;;;;;;;14.50;99.90;;;13.21;92.38;101126.31;3510813;40;102836;-40
2021/08/09 02:44:53;;;;;;;;;;;14.50;99.90;;;13.16;91.95;101115.19;3510687;40;102570;-40
2021/08/09 02:47:22;;;;;;;;;;;14.50;99.90;;;13.17;91.46;101120.47;3501936;40;102286;-39
2021/08/09 02:49:51;;;;;;;;;;;14.50;99.90;;;13.23;91.13;101124.19;3511306;40;103092;-39
2021/08/09 02:52:21;;;;;;;;;;;14.60;99.90;;;13.25;91.27;101124.78;3510856;40;102778;-40
2021/08/09 02:54:52;;;;;;;;;;;14.60;99.90;;;13.29;91.13;101144.38;3501703;40;104049;-39
2021/08/09 02:57:24;;;;;;;;;;;14.60;99.90;;;13.31;91.12;101134.88;3501700;40;102581;-40
2021/08/09 02:59:51;;;;;;;;;;;14.60;99.90;;;13.32;91.22;101136.56;3510063;40;103840;-40
2021/08/09 03:02:19;;;;;;;;;;;14.60;99.90;;;13.35;91.05;101136.13;3511098;40;102128;-40
2021/08/09 03:04:48;;;;;;;;;;;14.70;99.90;;;13.34;90.85;101131.69;3509861;40;102391;-40
2021/08/09 03:07:17;;;;;;;;;;;14.70;99.90;;;13.35;90.46;101127.03;3501935;40;103976;-40
2021/08/09 03:09:44;;;;;;;;;;;14.70;99.90;;;13.38;90.05;101135.66;3510815;40;102132;-40
2021/08/09 03:12:17;;;;;;;;;;;14.70;99.90;;;13.41;90.53;101141.75;3501820;40;103126;-40
2021/08/09 03:14:50;;;;;;;;;;;14.70;99.90;;;13.40;90.23;101140.06;3501432;40;103509;-39
2021/08/09 03:17:17;;;;;;;;;;;14.70;99.90;;;13.41;90.20;101145.34;3510776;40;102726;-40
2021/08/09 03:19:45;;;;;;;;;;;14.70;99.90;;;13.43;90.12;101143.25;3501600;40;104189;-39
2021/08/09 03:22:12;;;;;;;;;;;14.70;99.90;;;13.46;90.39;101152.91;3510635;40;102654;-40
2021/08/09 03:24:39;;;;;;;;;;;14.70;99.90;;;13.45;89.93;101152.09;3510148;40;102520;-40
2021/08/09 03:27:07;;;;;;;;;;;14.80;99.90;;;13.46;90.04;101150.16;3510679;40;102396;-40
2021/08/09 03:29:34;;;;;;;;;;;14.80;99.90;;;13.47;90.02;101152.69;3510660;40;104942;-40
2021/08/09 03:32:01;;;;;;;;;;;14.80;99.90;;;13.48;90.08;101151.63;3501586;40;102439;-40
2021/08/09 03:34:28;;;;;;;;;;;14.70;99.90;;;13.48;90.13;101153.53;3510008;40;104398;-39
2021/08/09 03:36:56;;;;;;;;;;;14.80;99.90;;;13.47;90.35;101151.84;3501605;40;102487;-40
2021/08/09 03:39:24;;;;;;;;;;;14.80;99.90;;;13.47;90.40;101149.09;3510889;40;104122;-40
2021/08/09 03:41:52;;;;;;;;;;;14.80;99.90;;;13.48;90.40;101150.78;3510440;40;102711;-40
2021/08/09 03:44:19;;;;;;;;;;;14.80;99.90;;;13.50;90.05;101146.75;3509626;40;104638;-40
2021/08/09 03:46:46;;;;;;;;;;;14.80;99.90;;;13.50;89.99;101149.50;3501768;40;102770;-40
2021/08/09 03:49:14;;;;;;;;;;;14.80;99.90;;;13.49;90.00;101153.31;3510751;40;102103;-40
2021/08/09 03:51:41;;;;;;;;;;;14.80;99.90;;;13.51;90.16;101147.59;3509700;40;102202;-43
2021/08/09 03:54:09;;;;;;;;;;;14.80;99.90;;;13.56;89.97;101147.78;3510460;40;104883;-39
2021/08/09 03:56:37;;;;;;;;;;;14.80;99.90;;;13.47;89.77;101135.41;3510301;40;102651;-40
2021/08/09 03:59:05;;;;;;;;;;;14.80;99.90;;;13.54;89.55;101151.78;3501418;40;104370;-40
2021/08/09 04:01:38;;;;;;;;;;;14.80;99.90;;;13.57;89.61;101154.09;3501566;40;102887;-39
2021/08/09 04:04:06;;;;;;;;;;;14.90;99.90;;;13.52;89.60;101146.53;3501583;40;104291;-39
2021/08/09 04:06:34;;;;;;;;;;;14.90;99.90;;;13.56;89.51;101147.78;3501604;40;102288;-40
2021/08/09 04:09:02;;;;;;;;;;;14.80;99.90;;;13.58;89.69;101151.13;3501193;40;105677;-40
2021/08/09 04:11:32;;;;;;;;;;;14.90;99.90;;;13.58;89.57;101145.66;3501821;40;103397;-40
2021/08/09 04:13:59;;;;;;;;;;;14.90;99.90;;;13.56;89.51;101141.44;3509430;40;104604;-38
2021/08/09 04:16:27;;;;;;;;;;;14.90;99.90;;;13.53;89.97;101131.78;3501824;40;104087;-40
2021/08/09 04:18:55;;;;;;;;;;;14.80;99.90;;;13.56;90.38;101130.47;3510380;40;103994;-40
2021/08/09 04:21:24;;;;;;;;;;;14.90;99.90;;;13.58;90.01;101142.06;3510722;40;102644;-40
2021/08/09 04:23:53;;;;;;;;;;;14.90;99.90;;;13.58;90.48;101140.16;3501372;40;102558;-39
2021/08/09 04:26:23;;;;;;;;;;;14.90;99.90;;;13.54;90.63;101133.47;3501521;40;104355;-40
2021/08/09 04:28:50;;;;;;;;;;;14.80;99.90;;;13.54;90.71;101140.84;3501474;40;104716;-40
2021/08/09 04:31:18;;;;;;;;;;;14.80;99.90;;;13.55;90.06;101140.63;3510564;40;102589;-40
2021/08/09 04:33:49;;;;;;;;;;;14.90;99.90;;;13.55;89.67;101137.88;3500844;40;103479;-40
2021/08/09 04:36:17;;;;;;;;;;;14.80;99.90;;;13.58;89.84;101139.31;3510569;40;102881;-39
2021/08/09 04:38:45;;;;;;;;;;;14.90;99.90;;;13.62;90.69;101144.13;3509922;40;105061;-40
2021/08/09 04:41:13;;;;;;;;;;;14.90;99.90;;;13.62;90.57;101138.66;3501598;40;102397;-40
2021/08/09 04:43:44;;;;;;;;;;;14.90;99.90;;;13.62;90.66;101143.28;3510386;40;104348;-40
2021/08/09 04:46:14;;;;;;;;;;;14.90;99.90;;;13.65;90.34;101146.41;3510420;40;102674;-39
2021/08/09 04:48:42;;;;;;;;;;;14.90;99.90;;;13.67;90.26;101148.94;3509608;40;103168;-40
2021/08/09 04:51:10;;;;;;;;;;;14.90;99.90;;;13.74;90.50;101151.59;3501311;40;102736;-39
2021/08/09 04:53:41;;;;;;;;;;;15.00;99.90;;;13.75;90.40;101165.09;3501345;40;103053;-39
2021/08/09 04:56:09;;;;;;;;;;;15.00;99.90;;;13.79;90.26;101162.72;3510355;40;102749;-40
2021/08/09 04:58:38;;;;;;;;;;;15.00;99.90;;;13.80;90.43;101161.69;3501221;40;103210;-39
2021/08/09 05:01:07;;;;;;;;;;;15.10;99.90;;;13.83;90.28;101169.47;3510226;40;103141;-40
2021/08/09 05:03:39;;;;;;;;;;;15.10;99.90;;;13.88;89.47;101171.50;3509797;40;103924;-40
2021/08/09 05:06:13;;;;;;;;;;;15.10;99.90;;;13.95;89.25;101172.31;3510049;40;102180;-40
2021/08/09 05:08:43;;;;;;;;;;;15.20;99.90;;;13.98;89.47;101166.34;3510009;40;105309;-40
2021/08/09 05:11:11;;;;;;;;;;;15.20;99.90;;;13.95;88.84;101161.34;3509373;40;103927;-40
2021/08/09 05:13:48;;;;;;;;;;;15.20;99.90;;;13.95;89.08;101170.38;3500988;40;103128;-40
2021/08/09 05:16:16;;;;;;;;;;;15.20;99.90;;;13.99;89.49;101159.81;3500878;40;102338;-40
2021/08/09 05:18:44;;;;;;;;;;;15.20;99.90;;;14.05;88.78;101171.75;3510414;40;102223;-40
2021/08/09 05:21:15;;;;;;;;;;;15.30;99.90;;;14.04;88.74;101170.06;3510160;40;103090;-39
2021/08/09 05:23:42;;;;;;;;;;;15.30;99.90;;;14.05;89.04;101166.25;3510552;40;102156;-40
2021/08/09 05:26:10;;;;;;;;;;;15.30;99.90;;;14.07;88.89;101164.16;3509853;40;102432;-40
2021/08/09 05:28:37;;;;;;;;;;;15.30;99.90;;;14.14;88.61;101175.03;3510473;40;102250;-40
2021/08/09 05:31:06;;;;;;;;;;;15.40;99.90;;;14.18;88.67;101174.38;3509956;40;102245;-40
2021/08/09 05:33:34;;;;;;;;;;;15.40;99.90;;;14.19;88.85;101170.56;3509709;40;102382;-39
2021/08/09 05:36:02;;;;;;;;;;;15.40;99.90;;;14.24;88.71;101178.94;3509904;40;103546;-40
2021/08/09 05:38:30;;;;;;;;;;;15.50;99.90;;;14.26;88.88;101166.88;3509572;40;102345;-39
2021/08/09 05:40:57;;;;;;;;;;;15.50;99.90;;;14.30;88.04;101168.97;3509900;40;103978;-40
2021/08/09 05:43:25;;;;;;;;;;;15.50;99.90;;;14.35;88.21;101165.53;3509843;40;103106;-40
2021/08/09 05:45:52;;;;;;;;;;;15.60;99.90;;;14.38;88.34;101163.16;3510032;40;103370;-40
2021/08/09 05:48:20;;;;;;;;;;;15.60;99.90;;;14.42;88.58;101151.72;3511096;40;102563;-39
2021/08/09 05:50:48;;;;;;;;;;;15.60;99.90;;;14.49;88.91;101163.47;3510315;40;102225;-40
2021/08/09 05:53:16;;;;;;;;;;;15.70;99.90;;;14.50;88.90;101167.88;3511066;40;102331;-40
2021/08/09 05:55:44;;;;;;;;;;;15.70;99.90;;;14.48;88.85;101165.34;3502003;40;103880;-40
2021/08/09 05:58:12;;;;;;;;;;;15.70;99.90;;;14.55;87.34;101170.78;3502168;40;104900;-39
2021/08/09 06:00:40;;;;;;;;;;;15.80;99.90;;;14.49;87.21;101169.78;3511211;40;102906;-41
2021/08/09 06:03:22;;;;;;;;;;;15.70;99.90;;;14.48;87.35;101175.50;3510648;40;104047;-40
2021/08/09 06:05:55;;;;;;;;;;;15.70;99.90;;;14.45;87.53;101176.81;3510007;40;104762;-40
2021/08/09 06:08:28;;;;;;;;;;;15.70;99.90;;;14.41;87.23;101181.06;3502006;40;103053;-40
2021/08/09 06:10:57;;;;;;;;;;;15.70;99.90;;;14.40;87.29;101179.41;3511395;40;102151;-40
2021/08/09 06:13:25;;;;;;;;;;;15.60;99.90;;;14.42;87.26;101176.41;3510854;40;102222;-40
2021/08/09 06:15:54;;;;;;;;;;;15.60;99.90;;;14.42;87.61;101180.00;3510145;40;102462;-40
2021/08/09 06:18:25;;;;;;;;;;;15.70;99.90;;;14.47;87.64;101173.84;3501850;40;102310;-40
2021/08/09 06:20:52;;;;;;;;;;;15.70;99.90;;;14.45;88.25;101181.44;3511478;40;102737;-40
2021/08/09 06:23:21;;;;;;;;;;;15.70;99.90;;;14.42;87.92;101176.41;3501802;40;102346;-40
2021/08/09 06:25:48;;;;;;;;;;;15.70;99.90;;;14.40;88.16;101176.66;3501836;40;102887;-40
2021/08/09 06:28:16;;;;;;;;;;;15.60;99.90;;;14.48;88.03;101186.50;3510132;40;102326;-39
2021/08/09 06:30:44;;;;;;;;;;;15.70;99.90;;;14.50;87.92;101189.84;3502027;40;102421;-39
2021/08/09 06:33:16;;;;;;;;;;;15.70;99.90;;;14.48;88.05;101192.81;3501921;40;103272;-40
2021/08/09 06:35:43;;;;;;;;;;;15.70;99.90;;;14.50;87.90;101192.59;3501840;40;102292;-38
2021/08/09 06:38:13;;;;;;;;;;;15.70;99.90;;;14.56;87.61;101194.41;3501642;40;104100;-40
2021/08/09 06:40:43;;;;;;;;;;;15.70;99.90;;;14.62;86.88;101201.72;3510001;40;103164;-40
2021/08/09 06:43:12;;;;;;;;;;;15.80;99.90;;;14.75;87.29;101200.75;3511439;40;102250;-40
2021/08/09 06:45:47;;;;;;;;;;;15.90;99.90;;;14.89;87.70;101193.16;3510081;40;102799;-40
2021/08/09 06:48:17;;;;;;;;;;;16.00;99.90;;;14.94;87.41;101200.72;3510077;40;102883;-39
2021/08/09 06:50:46;;;;;;;;;;;16.10;99.90;;;15.02;87.14;101196.81;3501806;40;102843;-40
2021/08/09 06:53:13;;;;;;;;;;;16.10;99.90;;;15.20;86.69;101202.22;3510993;40;104062;-39
2021/08/09 06:55:45;;;;;;;;;;;16.20;99.90;;;15.30;86.08;101203.59;3511119;40;102318;-40
2021/08/09 06:58:15;;;;;;;;;;;16.40;99.90;;;15.41;85.69;101204.69;3509634;40;104945;-40
2021/08/09 07:00:42;;;;;;;;;;;16.40;99.90;;;15.52;85.53;101210.22;3509981;40;102817;-40
2021/08/09 07:03:12;;;;;;;;;;;16.50;99.90;;;15.58;83.49;101205.66;3509761;40;104434;-40
2021/08/09 07:05:43;;;;;;;;;;;16.60;99.90;;;15.73;83.83;101207.13;3510604;40;102433;-39
2021/08/09 07:08:15;;;;;;;;;;;16.70;99.90;;;15.81;82.77;101204.00;3501762;40;103270;-40
2021/08/09 07:10:44;;;;;;;;;;;16.80;99.90;;;15.91;82.27;101201.56;3510209;40;102173;-40
2021/08/09 07:13:12;;;;;;;;;;;16.90;99.90;;;15.98;80.68;101209.66;3510556;40;103934;-40
2021/08/09 07:15:39;;;;;;;;;;;17.00;99.90;;;16.00;80.18;101204.75;3501500;40;104628;-40
2021/08/09 07:18:07;;;;;;;;;;;17.00;99.90;;;16.11;79.58;101203.06;3510449;40;104148;-40
2021/08/09 07:20:35;;;;;;;;;;;17.10;99.90;;;16.30;80.28;101211.19;3510004;40;102589;-39
2021/08/09 07:23:02;;;;;;;;;;;17.20;99.90;;;16.48;79.47;101196.44;3501714;40;104802;-40
2021/08/09 07:25:30;;;;;;;;;;;17.40;99.90;;;16.70;79.15;101195.78;3510704;40;102834;-40
2021/08/09 07:27:58;;;;;;;;;;;17.60;99.90;;;16.74;76.81;101200.56;3501522;40;104066;-41
2021/08/09 07:30:26;;;;;;;;;;;17.70;99.90;;;16.75;77.52;101215.16;3501627;40;102179;-40
2021/08/09 07:33:00;;;;;;;;;;;17.70;99.90;;;16.78;76.84;101214.66;3501822;40;105499;-40
2021/08/09 07:35:27;;;;;;;;;;;17.70;99.90;;;16.77;75.36;101207.50;3510941;40;102169;-40
2021/08/09 07:37:55;;;;;;;;;;;17.80;99.90;;;16.78;76.12;101210.00;3510737;40;105175;-40
2021/08/09 07:40:23;;;;;;;;;;;17.80;99.90;;;16.73;75.90;101209.91;3510583;40;102817;-40
2021/08/09 07:42:57;;;;;;;;;;;17.80;99.90;;;16.90;76.46;101215.47;3509900;40;103063;-40
2021/08/09 07:45:25;;;;;;;;;;;17.80;99.90;;;17.18;75.81;101212.97;3501420;40;103053;-41
2021/08/09 07:47:55;;;;;;;;;;;18.00;99.90;;;17.47;72.83;101213.78;3501743;40;106249;-40
2021/08/09 07:50:25;;;;;;;;;;;18.30;99.90;;;17.88;73.99;101210.84;3501627;40;102340;-40
2021/08/09 07:52:53;;;;;;;;;;;18.60;99.90;;;18.18;69.36;101212.41;3510192;40;103922;-40
2021/08/09 07:55:20;;;;;;;;;;;18.90;99.90;;;18.34;68.84;101207.13;3510529;40;102917;-40
2021/08/09 07:57:48;;;;;;;;;;;19.00;99.90;;;18.46;66.73;101212.53;3501786;40;104015;-41
2021/08/09 08:00:15;;;;;;;;;;;19.20;99.90;;;18.65;67.26;101215.78;3501457;40;103544;-40
2021/08/09 08:02:50;;;;;;;;;;;19.30;99.90;;;18.72;67.57;101204.56;3509899;40;103938;-41
2021/08/09 08:05:19;;;;;;;;;;;19.50;99.90;;;18.69;66.38;101208.66;3510538;40;102298;-40
2021/08/09 08:07:49;;;;;;;;;;;19.50;99.90;;;18.71;70.11;101205.66;3501161;40;103582;-40
2021/08/09 08:10:18;;;;;;;;;;;19.50;99.90;;;18.77;69.23;101207.38;3501234;40;102780;-40
2021/08/09 08:12:47;;;;;;;;;;;19.60;99.90;;;18.80;66.31;101204.09;3509699;40;106196;-40
2021/08/09 08:15:17;;;;;;;;;;;19.70;99.90;;;18.87;67.02;101209.41;3510647;40;102850;-40
2021/08/09 08:17:44;;;;;;;;;;;19.70;99.90;;;18.81;65.84;101201.03;3510636;40;102185;-40
2021/08/09 08:20:13;;;;;;;;;;;19.70;99.90;;;18.79;66.15;101210.72;3510038;40;103986;-40
2021/08/09 08:22:41;;;;;;;;;;;19.70;99.90;;;18.89;65.95;101210.00;3510833;40;103178;-40
2021/08/09 08:25:10;;;;;;;;;;;19.80;99.90;;;19.14;68.05;101212.22;3640050;22;103960;-40
2021/08/09 08:27:39;;;;;;;;;;;19.90;99.90;;;19.34;66.75;101211.56;3508562;40;103288;-39
2021/08/09 08:30:08;;;;;;;;;;;20.10;99.90;;;19.59;64.65;101201.00;3509871;40;103034;-39
2021/08/09 08:32:55;;;;;;;;;;;20.20;99.90;;;19.78;61.60;101205.03;3511037;40;104368;-40
2021/08/09 08:35:22;;;;;;;;;;;20.40;99.90;;;20.01;63.16;101205.75;3510549;40;102692;-42
2021/08/09 08:37:50;;;;;;;;;;;20.60;99.90;;;20.26;61.86;101210.63;3509993;40;103383;-39
2021/08/09 08:40:18;;;;;;;;;;;20.80;99.90;;;20.47;59.09;101213.50;3510421;40;102693;-39
2021/08/09 08:42:47;;;;;;;;;;;21.10;99.90;;;20.61;61.49;101211.06;3509614;40;103038;-40
2021/08/09 08:45:23;;;;;;;;;;;21.20;99.90;;;20.62;58.15;101211.88;3509624;40;102404;-39
2021/08/09 08:47:55;;;;;;;;;;;21.30;99.90;;;20.70;59.51;101216.94;3509679;40;103062;-39
2021/08/09 08:50:24;;;;;;;;;;;21.50;99.90;;;20.80;62.63;101225.31;3509795;40;102372;-40
2021/08/09 08:52:52;;;;;;;;;;;21.60;99.90;;;21.06;62.66;101219.81;3509525;40;105950;-39
2021/08/09 08:55:23;;;;;;;;;;;21.70;99.90;;;21.03;58.53;101220.38;3509308;40;103535;-39
2021/08/09 08:57:52;;;;;;;;;;;21.80;99.90;;;21.11;59.10;101208.75;3511072;40;102307;-40
2021/08/09 09:00:20;;;;;;;;;;;21.80;99.90;;;21.34;59.02;101212.09;3510808;40;102189;-40
2021/08/09 09:02:47;;;;;;;;;;;22.00;99.90;;;21.27;56.46;101201.25;3510434;40;103215;-40
2021/08/09 09:05:19;;;;;;;;;;;22.00;99.90;;;21.36;57.05;101207.09;3510461;40;102202;-40
2021/08/09 09:07:49;;;;;;;;;;;22.10;99.90;;;21.48;57.84;101211.53;3510303;40;102346;-39
2021/08/09 09:10:27;;;;;;;;;;;22.20;99.90;;;21.49;58.94;101197.41;3510996;40;102550;-39
2021/08/09 09:13:15;;;;;;;;;;;22.30;99.90;;;21.27;56.54;101208.78;3510678;40;103273;-40
2021/08/09 09:15:54;;;;;;;;;;;22.20;99.90;;;20.96;56.14;101205.94;3510534;40;103053;-39
2021/08/09 09:18:23;;;;;;;;;;;22.00;99.90;;;20.80;56.09;101208.66;3510193;40;102253;-40
2021/08/09 09:20:50;;;;;;;;;;;21.90;99.90;;;20.59;55.83;101201.34;3512774;40;102340;-41
2021/08/09 09:23:21;;;;;;;;;;;21.70;99.90;;;20.50;55.64;101210.19;3514147;40;103233;-39
2021/08/09 09:25:50;;;;;;;;;;;21.60;99.90;;;20.36;57.46;101206.22;3513924;40;102287;-40
2021/08/09 09:28:24;;;;;;;;;;;21.50;99.90;;;20.68;59.36;101188.63;3513475;40;102498;-40
2021/08/09 09:30:52;;;;;;;;;;;21.60;99.90;;;21.10;55.77;101200.72;3513642;40;102141;-39
2021/08/09 09:33:19;;;;;;;;;;;21.80;99.90;;;21.41;56.34;101201.56;3514153;40;103344;-40
2021/08/09 09:35:50;;;;;;;;;;;22.10;99.90;;;21.39;55.42;101214.88;3513529;40;102302;-42
2021/08/09 09:38:18;;;;;;;;;;;22.20;99.90;;;21.14;55.59;101210.13;3513412;40;103176;-42
2021/08/09 09:40:46;;;;;;;;;;;22.10;99.90;;;20.87;54.42;101205.66;3513188;40;102293;-41
2021/08/09 09:43:22;;;;;;;;;;;22.00;99.90;;;20.80;56.76;101217.00;3514016;40;102363;-40
2021/08/09 09:45:50;;;;;;;;;;;21.90;99.90;;;20.59;54.30;101213.28;3513505;40;102191;-39
2021/08/09 09:48:33;;;;;;;;;;;21.70;99.90;;;20.44;54.73;101214.06;3513608;40;102165;-41
2021/08/09 09:51:13;;;;;;;;;;;21.60;99.90;;;20.36;54.78;101220.09;3512973;40;102397;-40
2021/08/09 09:53:42;;;;;;;;;;;21.50;99.90;;;20.34;55.10;101220.38;3513721;40;102765;-40
2021/08/09 09:56:10;;;;;;;;;;;21.40;99.90;;;20.45;54.83;101209.31;3513631;40;102128;-41
2021/08/09 09:58:39;;;;;;;;;;;21.40;99.90;;;20.48;55.72;101217.94;3513398;40;102227;-39
2021/08/09 10:01:08;;;;;;;;;;;21.40;99.90;;;20.48;56.88;101214.31;3513836;40;102726;-39
2021/08/09 10:03:37;;;;;;;;;;;21.40;99.90;;;20.63;56.17;101217.19;3513453;40;102473;-39
2021/08/09 10:06:06;;;;;;;;;;;21.50;99.90;;;20.72;57.15;101222.19;3513357;40;102444;-40
2021/08/09 10:08:44;;;;;;;;;;;21.60;99.90;;;20.80;55.72;101230.00;3513339;40;102250;-40
2021/08/09 10:11:13;;;;;;;;;;;21.70;99.90;;;20.82;54.11;101225.84;3513183;40;102434;-39
2021/08/09 10:13:41;;;;;;;;;;;21.80;99.90;;;20.87;55.50;101219.50;3512968;40;103213;-39
2021/08/09 10:16:11;;;;;;;;;;;21.80;99.90;;;21.24;58.55;101224.00;3513453;40;102723;-39
2021/08/09 10:18:48;;;;;;;;;;;22.00;99.90;;;21.45;53.60;101224.03;3513414;40;103136;-40
2021/08/09 10:21:15;;;;;;;;;;;22.20;99.90;;;21.70;53.94;101216.88;3512896;40;102273;-41
2021/08/09 10:23:47;;;;;;;;;;;22.40;99.90;;;22.04;54.98;101221.81;3512651;40;103123;-39
2021/08/09 10:26:34;;;;;;;;;;;22.60;99.90;;;22.27;52.53;101213.97;3512889;40;102125;-40
2021/08/09 10:29:04;;;;;;;;;;;22.90;99.90;;;22.40;52.70;101212.56;3512907;40;103266;-40
2021/08/09 10:32:15;;;;;;;;;;;23.10;99.90;;;22.49;49.60;101213.66;3512298;40;102452;-39
2021/08/09 10:34:43;;;;;;;;;;;23.30;99.90;;;22.36;50.68;101215.06;3503210;40;102321;-39
2021/08/09 10:37:14;;;;;;;;;;;23.30;99.90;;;22.29;49.41;101216.50;3511456;40;102821;-40
2021/08/09 10:39:50;;;;;;;;;;;23.30;99.90;;;21.99;46.83;101213.50;3511344;40;102416;-39
2021/08/09 10:42:40;;;;;;;;;;;23.10;98.40;;;21.79;48.51;101206.84;3511329;40;102233;-40
2021/08/09 10:45:34;;;;;;;;;;;22.90;99.90;;;21.68;49.90;101228.22;3510786;40;102134;-39
2021/08/09 10:48:04;;;;;;;;;;;22.80;99.90;;;21.59;50.45;101213.22;3511512;40;102142;-40
2021/08/09 10:50:31;;;;;;;;;;;22.60;99.90;;;21.58;49.93;101211.56;3510974;40;102308;-39
2021/08/09 10:52:59;;;;;;;;;;;22.60;99.90;;;21.69;48.22;101212.41;3511267;40;102997;-39
2021/08/09 10:55:32;;;;;;;;;;;22.60;99.90;;;21.88;49.02;101220.16;3511322;40;102337;-39
2021/08/09 10:58:04;;;;;;;;;;;22.70;99.90;;;21.91;48.55;101220.44;3511399;40;102366;-39
2021/08/09 11:00:40;;;;;;;;;;;22.80;99.90;;;21.82;48.21;101217.41;3511199;40;103096;-40
2021/08/09 11:03:09;;;;;;;;;;;22.80;99.90;;;21.55;47.75;101237.09;3511118;40;102427;-39
2021/08/09 11:05:37;;;;;;;;;;;22.60;98.80;;;21.35;48.21;101230.41;3510028;40;102298;-39
2021/08/09 11:08:16;;;;;;;;;;;22.50;98.90;;;21.31;49.47;101237.63;3511523;40;102322;-40
2021/08/09 11:10:51;;;;;;;;;;;22.40;99.80;;;21.39;52.75;101239.84;3510356;40;103232;-42
2021/08/09 11:13:19;;;;;;;;;;;22.40;99.90;;;21.67;51.19;101234.06;3511227;40;102466;-40
2021/08/09 11:16:02;;;;;;;;;;;22.50;99.90;;;21.85;48.07;101224.34;3511073;40;103217;-40